Estación Meteorológica Peña el Pijo (Robertgarden) [ 07/24/17 22:42:59 CEST ]

Fecha Hora Presion(HPa) Temp (°C) Humedad % Rocio (°C) Viento ( m/s) Direccion Lluvia 1Hora(mm) Lluvia 24H(mm) LLuvia Total(mm)
2017-Jun-26 01:01:58 1008.700 18.6 63 11.4         1427.60
2017-Jun-26 02:01:59 1008.600 19.2 55 9.9         1427.60
2017-Jun-26 03:01:34 1008.100 18.1 57 9.4         1427.60
2017-Jun-26 04:01:32 1007.500 16.4 63 9.3         1427.60
2017-Jun-26 05:01:34 1007.400 14.9 69 9.3         1427.60
2017-Jun-26 06:01:37 1007.400 14.3 72 9.3         1427.60
2017-Jun-26 07:01:58 1007.500 14.8 76 10.6         1427.60
2017-Jun-26 08:01:49 1007.500 18.2 71 12.9         1427.60
2017-Jun-26 09:01:43 1007.700 23.0 51 12.3         1427.60
2017-Jun-26 10:01:47 1007.700 25.9 39 10.9         1427.60
2017-Jun-26 11:01:49 1007.700 28.4 35 11.4 1.8 NNW     1427.60
2017-Jun-26 12:01:47 1008.200 29.8 29 9.8         1427.60
2017-Jun-26 13:01:45 1008.200 31.2 25 8.6 0.9 WNW     1427.60
2017-Jun-26 14:01:50 1007.800 30.8 22 6.5         1427.60
2017-Jun-26 15:01:50 1007.300 32.7 20 6.9         1427.60
2017-Jun-26 16:01:44 1007.300 33.4 21 8.0         1427.60
2017-Jun-26 17:01:51 1007.000 33.8 20 7.7         1427.60
2017-Jun-26 18:01:59 1006.800 33.4 21 8.0         1427.60
2017-Jun-26 19:01:57 1006.700 32.3 21 7.1         1427.60
2017-Jun-26 20:01:48 1006.900 30.2 22 6.0         1427.60
2017-Jun-26 21:01:34 1007.300 26.1 26 4.9         1427.60
2017-Jun-26 22:01:30 1007.800 21.7 35 5.5         1427.60
2017-Jun-26 23:01:39 1008.400 18.3 45 6.1         1427.60

Temperatura Máxima:33°    Temperatura Mínima:14°
Presión Máxima:1008.700 Hpa    Presión Mínima:1006.700 Hpa


Volver